Latest Weather Observations for Cape Nelson

IDV60801

Issued at 2:31 pm EDT Friday 6 March 2015 (issued every 30 minutes, with the page automatically refreshed every 10 minutes)

About weather observations | Map of weather stations | Latest weather observations for VIC | Other Formats
Station Details ID: 090184 Name: CAPE NELSON LIGHTHOUSE Lat: -38.43 Lon: 141.54 Height: 45.4 m
Data from the previous 72 hours. | See also: Recent months at Cape Nelson
Date/Time
EDT
Temp
°C
App
Temp
°C
Dew
Point
Rel
Hum
%
Delta-T
°C
Wind Press
QNH
hPa
Press
MSL
hPa
Rain
since 9 am
mm
Dir
 
Spd
km/h
Gust
km/h
Spd
kts
Gust
kts
06/02:30pm 17.3 14.9 13.8 80 2.0 NNW 19 30 10 16 1013.5 1013.4 0.0
06/02:00pm 17.0 14.8 14.3 84 1.5 NNE 19 35 10 19 1013.5 1013.4 0.0
06/01:30pm 16.6 14.3 14.1 85 1.4 NNE 19 30 10 16 1013.7 1013.6 0.0
06/01:00pm 16.1 13.8 14.1 88 1.1 NNE 19 33 10 18 1013.9 1013.8 0.0
06/12:30pm 16.5 14.6 14.3 87 1.3 NNE 17 28 9 15 1013.8 1013.7 0.0
06/12:00pm 16.8 14.6 14.3 85 1.4 NE 19 28 10 15 1013.8 1013.7 0.0
06/11:30am 16.2 13.9 14.2 88 1.1 NNE 19 30 10 16 1013.7 1013.6 0.0
06/11:00am 16.0 13.8 14.5 91 0.9 N 19 32 10 17 1013.6 1013.5 0.0
06/10:30am 15.9 13.0 14.1 89 1.0 N 22 46 12 25 1013.3 1013.2 0.0
06/10:00am 15.7 12.0 13.9 89 1.0 WNW 26 46 14 25 1013.1 1013.0 0.0
06/09:30am 16.0 12.7 14.0 88 1.1 NNW 24 39 13 21 1013.0 1012.9 0.0
06/09:00am 16.1 11.5 13.6 85 1.4 WNW 30 46 16 25 1013.0 1012.9 0.0
06/08:30am 16.1 10.9 13.4 84 1.5 WNW 33 56 18 30 1012.7 1012.6 0.0
06/08:00am 15.9 10.1 12.8 82 1.7 WNW 35 57 19 31 1012.7 1012.6 0.0
06/07:38am 16.1 9.6 12.8 81 1.8 W 39 57 21 31 1012.6 1012.5 0.0
06/07:30am 15.9 8.5 12.6 81 1.8 W 43 57 23 31 1012.5 1012.4 0.0
06/07:00am 15.7 9.1 12.6 82 1.7 WNW 39 61 21 33 1012.5 1012.4 0.0
06/06:30am 15.9 9.6 12.3 79 2.0 W 37 57 20 31 1012.1 1012.0 0.0
06/06:08am 16.0 8.4 11.8 76 2.3 W 43 61 23 33 1012.1 1012.0 0.0
06/06:00am 15.9 7.1 12.1 78 2.1 W 50 63 27 34 1012.4 1012.3 0.0
06/05:30am 15.7 9.4 12.3 80 1.9 WNW 37 57 20 31 1012.6 1012.5 0.0
06/05:00am 15.6 9.6 12.2 80 1.9 WNW 35 57 19 31 1012.7 1012.6 0.0
06/04:30am 16.0 8.1 11.4 74 2.5 W 44 63 24 34 1012.8 1012.7 0.0
06/04:14am 15.5 7.6 11.5 77 2.2 W 44 63 24 34 1012.9 1012.8 0.0
06/04:00am 15.9 7.6 11.5 75 2.4 W 46 61 25 33 1013.0 1012.9 0.0
06/03:35am 15.9 8.4 12.1 78 2.1 W 43 61 23 33 1013.4 1013.3 0.0
06/03:30am 15.7 7.5 11.7 77 2.2 W 46 61 25 33 1013.4 1013.3 0.0
06/03:00am 16.0 7.9 12.0 77 2.2 W 46 65 25 35 1013.7 1013.6 0.0
06/02:41am 15.7 7.4 11.5 76 2.3 W 46 65 25 35 1014.1 1014.0 0.0
06/02:30am 15.7 6.6 11.1 74 2.5 W 50 65 27 35 1014.2 1014.1 0.0
06/02:00am 15.5 6.7 11.1 75 2.4 W 48 69 26 37 1014.4 1014.3 0.0
06/01:30am 15.5 7.5 11.1 75 2.4 W 44 63 24 34 1014.7 1014.6 0.0
06/01:17am 15.6 5.9 10.6 72 2.7 W 52 69 28 37 1014.7 1014.6 0.0
06/01:12am 15.4 4.7 9.7 69 3.0 W 56 74 30 40 1014.7 1014.6 0.0
06/01:00am 15.5 8.5 11.3 76 2.3 W 39 65 21 35 1014.7 1014.6 0.0
06/12:30am 15.3 7.3 10.3 72 2.6 W 43 61 23 33 1014.7 1014.6 0.0
06/12:11am 15.3 6.8 10.5 73 2.5 W 46 72 25 39 1015.0 1014.9 0.0
06/12:10am 15.2 6.9 10.2 72 2.6 W 44 72 24 39 1015.0 1014.9 0.0
06/12:00am 15.4 9.4 10.8 74 2.4 W 33 52 18 28 1015.2 1015.1 0.0
 
Date/Time
EDT
Temp
°C
App
Temp
°C
Dew
Point
Rel
Hum
%
Delta-T
°C
Wind Press
QNH
hPa
Press
MSL
hPa
Rain
since 9 am
mm
Dir
 
Spd
km/h
Gust
km/h
Spd
kts
Gust
kts
05/11:30pm 15.4 6.9 10.6 73 2.5 W 46 65 25 35 1015.6 1015.5 0.0
05/11:00pm 15.4 9.6 10.8 74 2.4 W 32 54 17 29 1016.0 1015.9 0.0
05/10:42pm 15.3 8.8 10.3 72 2.6 W 35 54 19 29 1016.3 1016.2 0.0
05/10:30pm 15.2 7.6 10.4 73 2.5 W 41 56 22 30 1016.4 1016.3 0.0
05/10:00pm 15.1 9.0 10.3 73 2.5 W 33 52 18 28 1016.4 1016.3 0.0
05/09:30pm 15.2 9.0 10.2 72 2.6 W 33 56 18 30 1016.5 1016.4 0.0
05/09:00pm 14.9 7.3 9.1 68 3.0 W 39 57 21 31 1016.5 1016.4 0.0
05/08:49pm 15.0 6.4 8.9 67 3.1 W 44 63 24 34 1016.7 1016.6 0.0
05/08:30pm 14.9 5.5 8.6 66 3.2 W 48 65 26 35 1016.6 1016.5 0.0
05/08:00pm 14.7 8.5 9.9 73 2.5 W 33 52 18 28 1016.8 1016.7 0.0
05/07:30pm 14.7 8.3 8.6 67 3.1 W 32 54 17 29 1017.2 1017.1 0.0
05/07:09pm 14.9 8.3 8.6 66 3.2 W 33 52 18 28 1017.3 1017.2 0.0
05/07:00pm 14.9 7.1 8.4 65 3.3 W 39 52 21 28 1017.5 1017.4 0.0
05/06:30pm 14.8 6.8 7.4 61 3.7 W 39 54 21 29 1017.7 1017.6 0.0
05/06:09pm 15.0 8.0 8.5 65 3.3 W 35 54 19 29 1017.6 1017.5 0.0
05/06:00pm 15.0 7.5 7.8 62 3.6 W 37 50 20 27 1017.7 1017.6 0.0
05/05:38pm 14.9 7.3 7.5 61 3.7 W 37 57 20 31 1017.7 1017.6 0.0
05/05:30pm 15.1 8.0 7.9 62 3.6 W 35 50 19 27 1017.8 1017.7 0.0
05/05:28pm 15.1 8.5 7.9 62 3.6 W 32 50 17 27 1017.8 1017.7 0.0
05/05:00pm 15.2 8.3 8.9 66 3.2 W 35 46 19 25 1018.2 1018.1 0.0
05/04:35pm 15.6 7.7 6.3 54 4.5 W 37 56 20 30 1018.4 1018.3 0.0
05/04:30pm 15.4 7.1 5.9 53 4.6 W 39 56 21 30 1018.5 1018.4 0.0
05/04:24pm 15.6 8.7 6.6 55 4.4 WNW 32 54 17 29 1018.4 1018.3 0.0
05/04:00pm 15.2 8.8 8.7 65 3.3 W 32 46 17 25 1018.6 1018.5 0.0
05/03:30pm 15.3 8.7 7.6 60 3.8 W 32 43 17 23 1018.9 1018.8 0.0
05/03:00pm 15.8 9.7 6.8 55 4.4 WNW 28 46 15 25 1019.1 1019.0 0.0
05/02:30pm 15.4 10.2 7.2 58 4.1 WNW 24 43 13 23 1019.2 1019.1 0.0
05/02:00pm 15.6 11.1 7.1 57 4.2 NW 20 39 11 21 1019.5 1019.4 0.0
05/01:30pm 15.2 8.8 7.0 58 4.0 W 30 44 16 24 1019.9 1019.8 0.0
05/01:00pm 15.5 10.6 6.8 56 4.3 NW 22 39 12 21 1020.0 1019.9 0.0
05/12:30pm 16.5 12.6 6.9 53 4.8 N 17 32 9 17 1020.3 1020.2 0.0
05/12:00pm 16.6 12.6 6.7 52 4.9 NE 17 24 9 13 1020.4 1020.3 0.0
05/11:30am 16.1 12.5 6.8 54 4.6 NE 15 24 8 13 1020.3 1020.2 0.0
05/11:00am 15.9 11.4 6.3 53 4.7 SE 19 32 10 17 1020.2 1020.1 0.0
05/10:30am 15.9 11.4 6.9 55 4.4 SSE 20 33 11 18 1019.8 1019.7 0.0
05/10:00am 14.9 10.1 7.5 61 3.7 S 22 43 12 23 1019.4 1019.3 0.0
05/09:30am 14.5 7.3 5.0 53 4.5 S 32 50 17 27 1019.2 1019.1 0.0
05/09:07am 14.3 7.2 5.4 55 4.2 S 32 50 17 27 1018.8 1018.7 0.0
05/09:00am 14.6 7.6 6.7 59 3.8 S 33 50 18 27 1018.9 1018.8 2.0
05/08:30am 14.2 6.6 5.6 56 4.1 S 35 57 19 31 1018.3 1018.2 2.0
05/08:00am 13.6 4.3 6.0 60 3.6 S 44 69 24 37 1018.2 1018.1 2.0
05/07:35am 13.4 4.7 5.8 60 3.6 S 41 59 22 32 1017.6 1017.5 2.0
05/07:30am 13.7 5.1 6.6 62 3.4 S 41 59 22 32 1017.7 1017.6 2.0
05/07:00am 13.8 7.3 6.4 61 3.5 S 30 56 16 30 1016.9 1016.8 2.0
05/06:30am 13.6 6.0 7.4 66 3.0 S 37 57 20 31 1016.6 1016.5 2.0
05/06:00am 13.4 6.8 6.0 61 3.5 SSE 30 54 16 29 1015.9 1015.8 2.0
05/05:30am 13.6 6.8 6.9 64 3.2 S 32 57 17 31 1015.9 1015.8 2.0
05/05:00am 13.6 6.8 5.3 57 3.9 SSE 30 57 16 31 1015.8 1015.7 2.0
05/04:30am 13.8 7.4 6.9 63 3.4 SSE 30 67 16 36 1015.4 1015.3 2.0
05/04:01am 13.8 8.1 6.7 62 3.4 ENE 26 52 14 28 1015.1 1015.0 2.0
05/04:00am 13.9 8.3 7.0 63 3.4 ENE 26 50 14 27 1015.2 1015.1 2.0
05/03:38am 13.0 8.1 6.8 66 3.0 E 22 46 12 25 1014.5 1014.4 2.0
05/03:30am 12.4 8.0 7.3 71 2.5 ENE 20 41 11 22 1014.7 1014.6 2.0
05/03:03am 13.7 7.5 6.1 60 3.6 NE 28 54 15 29 1014.2 1014.1 1.6
05/03:00am 13.6 7.7 5.7 59 3.7 NE 26 46 14 25 1014.3 1014.2 1.6
05/02:30am 13.6 6.4 7.8 68 2.9 S 35 69 19 37 1014.2 1014.1 1.6
05/02:17am 14.2 7.7 6.3 59 3.8 E 30 72 16 39 1013.8 1013.7 1.6
05/02:00am 14.1 7.6 6.7 61 3.6 NNE 30 59 16 32 1013.6 1013.5 1.6
05/01:33am 13.3 6.8 8.2 71 2.5 NE 32 70 17 38 1013.2 1013.1 1.6
05/01:30am 13.7 6.6 7.9 68 2.9 E 35 70 19 38 1012.8 1012.7 1.6
05/01:25am 14.7 8.1 8.6 67 3.1 ENE 33 59 18 32 1012.9 1012.8 1.6
05/01:22am 14.6 7.8 7.9 64 3.3 NE 33 59 18 32 1012.3 1012.2 1.6
05/01:21am 14.6 7.8 7.9 64 3.3 NE 33 59 18 32 1012.3 1012.2 1.6
05/01:00am 14.1 7.8 8.9 71 2.6 NE 32 54 17 29 1012.3 1012.2 1.6
05/12:37am 15.4 8.7 9.5 68 3.1 NNW 35 69 19 37 1011.5 1011.4 1.6
05/12:36am 15.4 9.0 9.5 68 3.1 NNW 33 69 18 37 1011.5 1011.4 1.6
05/12:30am 15.4 8.6 10.6 73 2.5 NW 37 61 20 33 1011.1 1011.0 1.6
05/12:09am 15.7 9.4 9.8 68 3.1 NW 33 70 18 38 1010.8 1010.7 1.6
05/12:05am 16.0 9.7 11.2 73 2.6 NW 35 57 19 31 1011.1 1011.0 1.6
05/12:03am 16.0 8.9 11.0 72 2.7 WNW 39 67 21 36 1011.0 1010.9 1.6
05/12:00am 16.2 8.5 11.6 74 2.5 WNW 43 67 23 36 1011.0 1010.9 1.6
 
Date/Time
EDT
Temp
°C
App
Temp
°C
Dew
Point
Rel
Hum
%
Delta-T
°C
Wind Press
QNH
hPa
Press
MSL
hPa
Rain
since 9 am
mm
Dir
 
Spd
km/h
Gust
km/h
Spd
kts
Gust
kts
04/11:30pm 15.0 8.4 12.5 85 1.4 W 39 63 21 34 1011.2 1011.1 1.6
04/11:00pm 15.0 7.8 13.0 88 1.1 WNW 43 67 23 36 1011.1 1011.0 1.4
04/10:57pm 15.3 9.6 13.1 87 1.2 WNW 35 57 19 31 1011.0 1010.9 1.0
04/10:49pm 15.8 7.8 12.4 80 1.9 WNW 46 74 25 40 1010.5 1010.4 0.8
04/10:45pm 16.6 8.5 13.1 80 2.0 W 48 74 26 40 1010.8 1010.7 0.8
04/10:30pm 16.1 10.3 13.9 87 1.2 WNW 37 56 20 30 1010.8 1010.7 0.8
04/10:13pm 15.5 8.8 13.5 88 1.1 W 41 59 22 32 1010.6 1010.5 0.8
04/10:00pm 15.4 5.7 12.9 85 1.4 W 56 78 30 42 1010.6 1010.5 0.8
04/09:55pm 15.3 6.6 13.7 90 0.9 W 52 78 28 42 1010.6 1010.5 0.8
04/09:54pm 15.1 6.3 13.3 89 1.0 W 52 78 28 42 1010.5 1010.4 0.8
04/09:30pm 17.3 10.3 13.8 80 2.0 WNW 43 61 23 33 1010.2 1010.1 0.0
04/09:05pm 16.9 10.6 13.6 81 1.9 WNW 39 65 21 35 1010.2 1010.1 0.0
04/09:00pm 16.8 10.8 14.3 85 1.4 WNW 39 54 21 29 1010.1 1010.0 0.0
04/08:36pm 17.1 10.6 14.0 82 1.8 WNW 41 59 22 32 1010.2 1010.1 0.0
04/08:30pm 16.9 10.6 13.6 81 1.9 WNW 39 54 21 29 1010.3 1010.2 0.0
04/08:00pm 17.0 10.8 13.9 82 1.8 WNW 39 50 21 27 1010.6 1010.5 0.0
04/07:30pm 17.1 10.9 13.8 81 1.9 NW 39 54 21 29 1010.4 1010.3 0.0
04/07:14pm 17.3 12.0 14.2 82 1.8 NW 35 57 19 31 1010.6 1010.5 0.0
04/07:00pm 17.3 11.3 13.4 78 2.2 WNW 37 52 20 28 1010.7 1010.6 0.0
04/06:30pm 17.2 12.4 14.5 84 1.6 WNW 33 44 18 24 1011.0 1010.9 0.0
04/06:00pm 18.1 11.9 13.8 76 2.5 WNW 39 61 21 33 1011.1 1011.0 0.0
04/05:30pm 18.1 12.0 14.0 77 2.3 WNW 39 57 21 31 1011.2 1011.1 0.0
04/05:22pm 18.2 12.8 13.9 76 2.5 WNW 35 54 19 29 1011.4 1011.3 0.0
04/05:00pm 18.9 12.4 14.0 73 2.8 WNW 41 54 22 29 1011.7 1011.6 0.0
04/04:30pm 18.4 11.8 13.7 74 2.7 WNW 41 61 22 33 1011.9 1011.8 0.0
04/04:24pm 18.5 12.1 13.1 71 3.0 WNW 39 61 21 33 1011.9 1011.8 0.0
04/04:00pm 18.9 12.3 12.6 67 3.5 WNW 39 50 21 27 1012.1 1012.0 0.0
04/03:30pm 20.2 14.3 13.6 66 3.8 WNW 37 48 20 26 1012.5 1012.4 0.0
04/03:08pm 19.1 14.2 13.7 71 3.1 WNW 32 52 17 28 1012.6 1012.5 0.0
04/03:00pm 17.8 13.6 14.7 82 1.8 WNW 30 46 16 25 1012.8 1012.7 0.0
04/02:52pm 17.4 11.7 13.1 76 2.4 WNW 35 54 19 29 1013.0 1012.9 0.0
04/02:30pm 19.7 13.7 13.2 66 3.7 WNW 37 48 20 26 1013.1 1013.0 0.0
04/02:00pm 19.9 14.2 12.9 64 4.0 WNW 35 48 19 26 1013.3 1013.2 0.0
04/01:30pm 19.1 14.1 13.5 70 3.2 WNW 32 44 17 24 1013.5 1013.4 0.0
04/01:00pm 18.3 13.6 14.2 77 2.4 NW 32 48 17 26 1013.8 1013.7 0.0
04/12:52pm 18.0 13.6 14.1 78 2.2 NW 30 48 16 26 1013.9 1013.8 0.0
04/12:30pm 18.5 14.0 13.8 74 2.7 WNW 30 44 16 24 1014.1 1014.0 0.0
04/12:00pm 19.3 15.4 14.3 73 2.9 NW 28 43 15 23 1014.5 1014.4 0.0
04/11:30am 17.8 13.2 13.5 76 2.4 WNW 30 44 16 24 1014.9 1014.8 0.0
04/11:00am 17.4 13.7 13.9 80 2.0 WNW 26 39 14 21 1014.8 1014.7 0.0
04/10:45am 16.1 11.9 13.4 84 1.5 W 28 46 15 25 1014.9 1014.8 0.0
04/10:30am 18.2 13.0 12.9 71 3.0 WNW 32 46 17 25 1014.7 1014.6 0.0
04/10:00am 16.2 11.9 13.1 82 1.7 W 28 39 15 21 1015.1 1015.0 0.0
04/09:36am 16.8 12.3 12.5 76 2.4 W 28 52 15 28 1015.0 1014.9 0.0
04/09:30am 16.5 11.7 11.6 73 2.7 WNW 28 37 15 20 1015.0 1014.9 0.0
04/09:08am 16.3 11.5 11.5 73 2.6 W 28 46 15 25 1014.9 1014.8 0.0
04/09:00am 16.5 12.4 11.6 73 2.7 W 24 43 13 23 1014.9 1014.8 0.0
04/08:43am 16.0 11.2 11.8 76 2.3 W 28 48 15 26 1014.7 1014.6 0.0
04/08:30am 15.9 11.6 11.9 77 2.2 W 26 39 14 21 1014.6 1014.5 0.0
04/08:00am 16.1 10.7 12.1 77 2.2 WNW 32 44 17 24 1014.4 1014.3 0.0
04/07:30am 16.2 11.4 11.8 75 2.4 W 28 44 15 24 1014.1 1014.0 0.0
04/07:00am 16.4 12.1 10.9 70 2.9 W 24 35 13 19 1013.9 1013.8 0.0
04/06:30am 16.1 11.4 10.8 71 2.8 W 26 41 14 22 1014.1 1014.0 0.0
04/06:00am 16.1 11.6 11.5 74 2.5 W 26 43 14 23 1014.2 1014.1 0.0
04/05:30am 16.1 10.2 10.4 69 3.0 W 32 43 17 23 1014.3 1014.2 0.0
04/05:06am 16.1 10.8 11.1 72 2.7 W 30 48 16 26 1014.3 1014.2 0.0
04/05:00am 15.8 11.1 10.8 72 2.7 WNW 26 37 14 20 1014.5 1014.4 0.0
04/04:30am 15.9 11.0 11.3 74 2.5 W 28 48 15 26 1014.6 1014.5 0.0
04/04:11am 16.2 10.8 9.6 65 3.4 WNW 28 46 15 25 1014.7 1014.6 0.0
04/04:00am 16.1 11.1 9.5 65 3.4 WNW 26 37 14 20 1014.8 1014.7 0.0
04/03:30am 16.1 10.7 9.5 65 3.4 W 28 44 15 24 1015.1 1015.0 0.0
04/03:00am 16.1 9.7 10.6 70 2.9 W 35 46 19 25 1015.3 1015.2 0.0
04/02:30am 16.3 10.6 11.9 75 2.4 W 33 44 18 24 1015.7 1015.6 0.0
04/02:00am 16.3 11.5 10.4 68 3.1 W 26 37 14 20 1015.9 1015.8 0.0
04/01:30am 16.0 12.8 11.2 73 2.6 NW 19 28 10 15 1016.0 1015.9 0.0
04/01:00am 15.7 12.1 10.7 72 2.7 WNW 20 26 11 14 1016.1 1016.0 0.0
04/12:30am 16.1 12.2 10.8 71 2.8 WNW 22 32 12 17 1016.5 1016.4 0.0
04/12:00am 16.1 11.6 10.2 68 3.1 WNW 24 33 13 18 1016.8 1016.7 0.0
 
Date/Time
EDT
Temp
°C
App
Temp
°C
Dew
Point
Rel
Hum
%
Delta-T
°C
Wind Press
QNH
hPa
Press
MSL
hPa
Rain
since 9 am
mm
Dir
 
Spd
km/h
Gust
km/h
Spd
kts
Gust
kts
03/11:30pm 16.4 13.5 10.9 70 2.9 W 17 28 9 15 1017.3 1017.2 0.0
03/11:00pm 16.1 13.1 10.8 71 2.8 WNW 17 26 9 14 1017.5 1017.4 0.0
03/10:30pm 16.3 12.5 11.2 72 2.7 W 22 32 12 17 1017.6 1017.5 0.0
03/10:00pm 16.3 11.6 10.8 70 2.9 W 26 35 14 19 1017.6 1017.5 0.0
03/09:30pm 16.6 12.6 11.9 74 2.6 W 24 33 13 18 1017.5 1017.4 0.0
03/09:00pm 16.5 13.1 11.4 72 2.8 W 20 26 11 14 1017.1 1017.0 0.0
03/08:30pm 16.5 13.0 10.8 69 3.0 W 20 26 11 14 1016.9 1016.8 0.0
03/08:00pm 16.5 14.0 11.2 71 2.9 W 15 24 8 13 1016.8 1016.7 0.0
03/07:30pm 16.7 13.7 10.5 67 3.3 W 17 26 9 14 1016.8 1016.7 0.0
03/07:00pm 17.1 13.4 10.2 64 3.7 W 20 28 11 15 1016.6 1016.5 0.0
03/06:30pm 17.2 13.5 10.3 64 3.7 W 20 26 11 14 1016.7 1016.6 0.0
03/06:00pm 18.0 14.9 10.4 61 4.1 W 17 26 9 14 1016.7 1016.6 0.0
03/05:30pm 19.1 17.6 10.4 57 4.7 NW 9 17 5 9 1016.7 1016.6 0.0
03/05:00pm 19.5 17.6 10.5 56 4.9 NW 11 17 6 9 1016.7 1016.6 0.0
03/04:30pm 19.6 17.4 10.9 57 4.7 WNW 13 19 7 10 1016.9 1016.8 0.0
03/04:00pm 19.4 17.9 10.7 57 4.7 E 9 17 5 9 1017.0 1016.9 0.0
03/03:30pm 20.2 18.9 12.4 61 4.4 NE 11 17 6 9 1017.3 1017.2 0.0
03/03:00pm 20.0 18.9 12.0 60 4.5 NNE 9 17 5 9 1017.6 1017.5 0.0

Other Formats:

Comma delimited format used in spreadsheet applications
http://www.bom.gov.au/fwo/IDV60801/IDV60801.94826.axf

JavaScript Object Notation format (JSON) in row-major order
http://www.bom.gov.au/fwo/IDV60801/IDV60801.94826.json